Time;durP1;ratioP1;P1;durP2;ratioP2;P2;SDS_P1;SDS_P2;PMS_P1;PMS_P2;Temp;Humidity;BMP_temperature;BMP_pressure;BME280_temperature;BME280_humidity;BME280_pressure;Samples;Min_cycle;Max_cycle;Signal;HPM_P1;HPM_P2
2023/11/04 18:28:59;;;;;;;0.75;0.30;;;9.90;90.90;;;;;;5151035;27;20154;-75
2023/11/04 18:31:25;;;;;;;0.93;0.40;;;10.00;91.10;;;;;;5130358;28;20481;-75
2023/11/04 18:33:51;;;;;;;0.73;0.30;;;10.00;91.10;;;;;;5111546;28;20097;-76
2023/11/04 18:36:17;;;;;;;0.68;0.30;;;10.00;91.10;;;;;;5094920;28;20035;-75
2023/11/04 18:38:43;;;;;;;2.47;0.55;;;10.10;91.10;;;;;;5094909;28;20130;-75
2023/11/04 18:41:15;;;;;;;1.02;0.40;;;10.10;91.10;;;;;;5130033;28;20620;-75
2023/11/04 18:43:41;;;;;;;0.30;0.30;;;10.10;91.10;;;;;;5110885;28;20075;-75
2023/11/04 18:46:07;;;;;;;0.38;0.38;;;10.10;91.00;;;;;;5129717;28;20093;-75
2023/11/04 18:48:36;;;;;;;1.50;0.50;;;10.30;91.00;;;;;;5130201;28;20039;-75
2023/11/04 18:51:03;;;;;;;0.85;0.32;;;10.30;90.90;;;;;;5129865;28;20092;-75
2023/11/04 18:53:29;;;;;;;1.02;0.50;;;10.40;90.90;;;;;;5130244;28;20035;-76
2023/11/04 18:55:55;;;;;;;0.50;0.40;;;10.50;90.80;;;;;;5111404;28;20129;-76
2023/11/04 18:58:21;;;;;;;1.45;0.30;;;10.40;90.70;;;;;;5111895;28;20035;-77
2023/11/04 19:00:47;;;;;;;0.77;0.40;;;10.30;90.70;;;;;;5111992;28;20058;-76
2023/11/04 19:03:13;;;;;;;0.30;0.20;;;10.20;90.70;;;;;;5093781;28;20035;-77
2023/11/04 19:05:38;;;;;;;0.35;0.35;;;10.10;90.80;;;;;;5110242;28;20067;-77
2023/11/04 19:08:04;;;;;;;0.28;0.20;;;10.10;90.90;;;;;;5129327;28;20484;-77
2023/11/04 19:10:32;;;;;;;0.73;0.30;;;10.00;91.00;;;;;;5111330;28;20035;-77
2023/11/04 19:12:58;;;;;;;0.32;0.20;;;9.90;91.10;;;;;;5094230;28;20051;-77
2023/11/04 19:15:24;;;;;;;0.20;0.20;;;9.80;91.20;;;;;;5092992;28;20042;-77
2023/11/04 19:17:50;;;;;;;0.10;0.10;;;9.80;91.20;;;;;;5129655;28;20039;-76
2023/11/04 19:20:15;;;;;;;0.20;0.20;;;9.70;91.30;;;;;;5129374;28;20035;-77
2023/11/04 19:22:41;;;;;;;0.20;0.20;;;9.70;91.30;;;;;;5110434;28;20509;-77
2023/11/04 19:25:07;;;;;;;0.10;0.10;;;9.70;91.40;;;;;;5129261;28;20489;-77
2023/11/04 19:27:33;;;;;;;0.30;0.10;;;9.70;91.40;;;;;;5129690;28;20433;-77
2023/11/04 19:29:59;;;;;;;0.28;0.20;;;9.70;91.40;;;;;;5129200;28;20125;-77
2023/11/04 19:32:25;;;;;;;0.10;0.10;;;9.70;91.40;;;;;;5093760;28;20122;-77
2023/11/04 19:34:50;;;;;;;0.10;0.10;;;9.70;91.40;;;;;;5129138;28;20043;-77
2023/11/04 19:37:16;;;;;;;0.25;0.20;;;9.60;91.50;;;;;;5128936;28;20442;-77
2023/11/04 19:39:42;;;;;;;0.20;0.20;;;9.60;91.50;;;;;;5099880;28;20047;-77
2023/11/04 19:42:11;;;;;;;0.13;0.13;;;9.60;91.50;;;;;;5097302;28;20038;-77
2023/11/04 19:44:37;;;;;;;0.20;0.20;;;9.50;91.50;;;;;;5098217;28;20485;-76
2023/11/04 19:47:03;;;;;;;0.20;0.20;;;9.60;91.50;;;;;;5096844;28;20043;-77
2023/11/04 19:49:30;;;;;;;0.10;0.10;;;9.60;91.50;;;;;;5115144;28;20092;-76
2023/11/04 19:51:56;;;;;;;0.17;0.17;;;9.60;91.50;;;;;;5115045;28;20074;-77
2023/11/04 19:54:21;;;;;;;0.80;0.20;;;9.60;91.50;;;;;;5115418;28;20059;-77
2023/11/04 19:56:47;;;;;;;0.35;0.20;;;9.60;91.50;;;;;;5079910;28;20093;-77
2023/11/04 19:59:13;;;;;;;0.20;0.20;;;9.60;91.50;;;;;;5115496;28;20381;-76
2023/11/04 20:01:39;;;;;;;0.65;0.35;;;9.60;91.50;;;;;;5079913;28;20082;-77
2023/11/04 20:04:05;;;;;;;0.20;0.20;;;9.60;91.50;;;;;;5097254;28;20035;-77
2023/11/04 20:06:30;;;;;;;0.80;0.20;;;9.60;91.50;;;;;;5063182;28;20390;-76
2023/11/04 20:08:56;;;;;;;0.63;0.28;;;9.60;91.50;;;;;;5095138;28;20055;-76
2023/11/04 20:11:23;;;;;;;0.77;0.30;;;9.70;91.50;;;;;;5115416;28;20404;-77
2023/11/04 20:13:50;;;;;;;0.25;0.25;;;9.70;91.50;;;;;;5096718;28;20047;-76
2023/11/04 20:16:15;;;;;;;0.30;0.30;;;9.80;91.50;;;;;;5115015;28;20074;-77
2023/11/04 20:18:41;;;;;;;1.33;0.35;;;9.80;91.40;;;;;;5096504;28;20096;-77
2023/11/04 20:21:07;;;;;;;1.17;0.50;;;9.90;91.40;;;;;;5079672;28;20036;-77
2023/11/04 20:23:33;;;;;;;0.95;0.40;;;9.90;91.30;;;;;;5096576;28;20040;-77
2023/11/04 20:25:59;;;;;;;0.65;0.40;;;10.00;91.30;;;;;;5096807;28;20043;-77
2023/11/04 20:28:25;;;;;;;1.42;0.45;;;10.00;91.20;;;;;;5114976;28;20043;-76
2023/11/04 20:30:51;;;;;;;1.27;0.43;;;10.10;91.20;;;;;;5096687;28;20040;-76
2023/11/04 20:33:18;;;;;;;1.95;0.50;;;10.10;91.20;;;;;;5094941;28;20071;-76
2023/11/04 20:35:44;;;;;;;2.42;0.80;;;10.20;91.20;;;;;;5078153;28;20028;-76
2023/11/04 20:38:10;;;;;;;0.85;0.50;;;10.30;91.20;;;;;;5096122;28;20123;-75
2023/11/04 20:40:38;;;;;;;1.27;0.50;;;10.30;91.10;;;;;;5095449;28;20130;-76
2023/11/04 20:43:05;;;;;;;1.70;0.60;;;10.30;91.10;;;;;;5114681;28;20039;-77
2023/11/04 20:45:32;;;;;;;2.25;0.70;;;10.40;91.10;;;;;;5096663;28;20063;-76
2023/11/04 20:48:00;;;;;;;2.08;0.60;;;10.40;91.00;;;;;;5079402;28;20035;-76
2023/11/04 20:50:27;;;;;;;1.20;0.43;;;10.40;91.00;;;;;;5112906;28;20036;-77
2023/11/04 20:52:53;;;;;;;1.25;0.50;;;10.40;91.00;;;;;;5113846;28;20051;-77
2023/11/04 20:55:18;;;;;;;1.25;0.50;;;10.40;91.00;;;;;;5114442;28;20040;-76
2023/11/04 20:57:45;;;;;;;1.35;0.50;;;10.40;91.00;;;;;;5095904;28;20095;-77
2023/11/04 21:00:13;;;;;;;1.90;0.60;;;10.40;91.00;;;;;;5114310;28;20379;-76
2023/11/04 21:02:39;;;;;;;0.52;0.35;;;10.40;91.00;;;;;;5095595;28;20054;-76
2023/11/04 21:05:06;;;;;;;1.33;0.60;;;10.50;91.10;;;;;;5095497;28;20489;-77
2023/11/04 21:07:33;;;;;;;1.15;0.52;;;10.40;91.10;;;;;;5096060;28;20095;-76
2023/11/04 21:09:59;;;;;;;1.70;0.75;;;10.40;91.10;;;;;;5093485;28;20040;-75
2023/11/04 21:12:26;;;;;;;2.15;0.80;;;10.50;91.10;;;;;;5095783;28;20130;-76
2023/11/04 21:14:53;;;;;;;1.80;0.68;;;10.40;91.10;;;;;;5094807;28;20166;-76
2023/11/04 21:17:19;;;;;;;0.82;0.50;;;10.40;91.10;;;;;;5095965;28;20032;-76
2023/11/04 21:19:46;;;;;;;2.40;0.70;;;10.50;91.10;;;;;;5114168;28;20055;-76
2023/11/04 21:22:12;;;;;;;0.77;0.40;;;10.40;91.10;;;;;;5078671;28;20032;-76
2023/11/04 21:24:38;;;;;;;0.85;0.40;;;10.40;91.10;;;;;;5094405;28;20094;-76
2023/11/04 21:27:04;;;;;;;0.70;0.60;;;10.40;91.10;;;;;;5095564;28;20078;-76
2023/11/04 21:29:30;;;;;;;0.90;0.40;;;10.40;91.10;;;;;;5078527;28;20052;-76
2023/11/04 21:31:56;;;;;;;2.30;0.80;;;10.50;91.20;;;;;;5113451;28;20050;-76
2023/11/04 21:34:22;;;;;;;2.15;0.75;;;10.50;91.10;;;;;;5095252;28;20075;-77
2023/11/04 21:36:47;;;;;;;1.25;0.35;;;10.60;91.10;;;;;;5078310;28;20039;-77
2023/11/04 21:39:15;;;;;;;1.38;0.50;;;10.60;91.00;;;;;;5078419;28;20492;-76
2023/11/04 21:41:42;;;;;;;2.05;0.70;;;10.60;91.00;;;;;;5095193;28;20367;-76
2023/11/04 21:44:09;;;;;;;2.97;0.60;;;10.50;91.00;;;;;;5113490;28;20089;-77
2023/11/04 21:46:36;;;;;;;1.35;0.55;;;10.50;91.00;;;;;;5113924;28;20035;-76
2023/11/04 21:49:02;;;;;;;1.90;0.68;;;10.60;91.00;;;;;;5095279;28;20107;-76
2023/11/04 21:51:28;;;;;;;0.68;0.40;;;10.60;91.00;;;;;;5077962;28;20047;-77
2023/11/04 21:53:54;;;;;;;2.38;0.57;;;10.50;91.00;;;;;;5113506;28;20047;-76
2023/11/04 21:56:21;;;;;;;1.40;0.82;;;10.50;91.00;;;;;;5113240;28;20177;-75
2023/11/04 21:58:47;;;;;;;0.95;0.60;;;10.60;91.00;;;;;;5078227;28;20040;-75
2023/11/04 22:01:13;;;;;;;1.58;0.77;;;10.60;91.00;;;;;;5113215;28;20043;-76
2023/11/04 22:03:42;;;;;;;0.57;0.50;;;10.60;91.00;;;;;;5112545;28;20046;-76
2023/11/04 22:06:08;;;;;;;1.67;0.65;;;10.70;91.00;;;;;;5113024;28;20126;-76
2023/11/04 22:08:33;;;;;;;3.42;0.77;;;10.50;90.90;;;;;;5113283;28;20134;-77
2023/11/04 22:10:59;;;;;;;0.52;0.40;;;10.50;90.90;;;;;;5113110;28;20043;-76
2023/11/04 22:13:25;;;;;;;0.80;0.52;;;10.50;90.90;;;;;;5113455;28;20047;-76
2023/11/04 22:15:51;;;;;;;4.85;0.70;;;10.50;91.00;;;;;;5113028;28;20118;-75
2023/11/04 22:18:16;;;;;;;0.77;0.50;;;10.50;91.00;;;;;;5112743;28;20116;-77
2023/11/04 22:20:42;;;;;;;2.33;0.70;;;10.50;91.00;;;;;;5094518;28;20043;-76
2023/11/04 22:23:08;;;;;;;2.00;0.60;;;10.40;90.90;;;;;;5077755;28;20044;-76
2023/11/04 22:25:35;;;;;;;3.00;0.70;;;10.50;90.90;;;;;;5113160;28;20134;-76
2023/11/04 22:28:01;;;;;;;1.48;0.75;;;10.50;90.90;;;;;;5113109;28;20040;-76
2023/11/04 22:30:27;;;;;;;1.73;0.50;;;10.50;90.90;;;;;;5094520;28;20496;-77
2023/11/04 22:32:54;;;;;;;1.50;0.45;;;10.50;90.90;;;;;;5094669;28;20067;-76
2023/11/04 22:35:20;;;;;;;2.67;0.75;;;10.50;91.00;;;;;;5112818;28;20036;-75
2023/11/04 22:37:45;;;;;;;1.75;0.73;;;10.50;90.90;;;;;;5094092;28;20052;-77
2023/11/04 22:40:12;;;;;;;2.65;0.60;;;10.40;90.90;;;;;;5092788;28;20127;-76
2023/11/04 22:42:40;;;;;;;0.32;0.30;;;10.40;90.90;;;;;;5112681;28;20048;-76
2023/11/04 22:45:06;;;;;;;1.23;0.50;;;10.40;90.90;;;;;;5112950;28;20040;-77
2023/11/04 22:47:32;;;;;;;0.50;0.30;;;10.40;90.90;;;;;;5094191;28;20048;-76
2023/11/04 22:49:58;;;;;;;1.23;0.52;;;10.40;91.00;;;;;;5112451;28;20058;-76
2023/11/04 22:52:23;;;;;;;1.13;0.47;;;10.30;91.00;;;;;;5060606;28;20027;-76
2023/11/04 22:54:49;;;;;;;1.48;0.40;;;10.30;91.00;;;;;;5112354;28;20489;-76
2023/11/04 22:57:15;;;;;;;0.68;0.60;;;10.30;91.00;;;;;;5094187;28;20493;-76
2023/11/04 22:59:40;;;;;;;2.35;0.80;;;10.30;91.00;;;;;;5113051;28;20043;-76
2023/11/04 23:02:06;;;;;;;1.88;0.60;;;10.30;91.00;;;;;;5112641;28;20054;-76
2023/11/04 23:04:32;;;;;;;2.80;0.68;;;10.30;91.00;;;;;;5112207;28;20051;-77
2023/11/04 23:06:58;;;;;;;1.13;0.47;;;10.20;91.00;;;;;;5112165;28;20448;-76
2023/11/04 23:09:23;;;;;;;1.75;0.85;;;10.20;91.00;;;;;;5112422;28;20085;-76
2023/11/04 23:11:49;;;;;;;2.75;0.65;;;10.20;91.00;;;;;;5077113;28;20036;-76
2023/11/04 23:14:15;;;;;;;0.85;0.60;;;10.10;91.00;;;;;;5113191;28;20039;-76
2023/11/04 23:16:43;;;;;;;2.05;0.50;;;10.20;91.00;;;;;;5115775;28;20035;-75
2023/11/04 23:19:09;;;;;;;1.52;0.60;;;10.20;91.00;;;;;;5097736;28;20400;-75
2023/11/04 23:21:36;;;;;;;1.02;0.57;;;10.20;91.00;;;;;;5116032;28;20031;-76
2023/11/04 23:24:03;;;;;;;2.20;0.60;;;10.30;91.00;;;;;;5097793;28;20075;-76
2023/11/04 23:26:29;;;;;;;1.88;0.70;;;10.30;90.90;;;;;;5115552;28;20035;-76
2023/11/04 23:28:54;;;;;;;1.20;0.60;;;10.30;90.90;;;;;;5115433;28;20485;-75
2023/11/04 23:31:20;;;;;;;1.40;0.55;;;10.30;90.80;;;;;;5115651;28;20476;-75
2023/11/04 23:33:46;;;;;;;1.85;0.63;;;10.30;90.80;;;;;;5097401;28;20028;-76
2023/11/04 23:36:12;;;;;;;2.35;0.60;;;10.30;90.80;;;;;;5097155;28;20039;-76
2023/11/04 23:38:38;;;;;;;2.50;0.60;;;10.20;90.70;;;;;;5097291;28;20048;-75
2023/11/04 23:41:04;;;;;;;1.38;0.50;;;10.30;90.80;;;;;;5116010;28;20127;-76
2023/11/04 23:43:29;;;;;;;1.55;0.70;;;10.20;90.80;;;;;;5115921;28;20416;-76
2023/11/04 23:45:56;;;;;;;1.35;0.50;;;10.20;90.80;;;;;;5115575;28;20039;-76
2023/11/04 23:48:23;;;;;;;0.73;0.50;;;10.10;90.80;;;;;;5095946;28;20040;-76
2023/11/04 23:50:49;;;;;;;1.40;0.35;;;10.10;90.80;;;;;;5096899;28;20081;-76
2023/11/04 23:53:15;;;;;;;1.75;0.70;;;10.20;90.90;;;;;;5115194;28;20063;-77
2023/11/04 23:55:41;;;;;;;1.27;0.50;;;10.10;90.90;;;;;;5097228;28;20039;-76
2023/11/04 23:58:07;;;;;;;2.05;0.70;;;10.10;90.90;;;;;;5096919;28;20046;-75
